Aérodrome :
LOGIN :

S'inscrire | Disclaimer

   EN    FR    IT 

 










Légende :    VFR   VFR Marginal   IFR   IFR Intensif   IFR Très Intensif
Visi : 
Plafond : 
>= 8 km
>= 3000ft
5 à 8 km
1000 à 3000 ft
1500m à 5 km
500 à 1000 ft
800 à 1500m
200 à 500 ft
< 800m
< 200 ft
Symboles :   Orages  Brouillard  Fortes neiges  Fortes précipitations  Vent > 20 kt
SIGMETs :   Divers  Orages  Givrage  Turbulence  Onde Orograph.  Cendres Volcan.







- Altitude de l'aérodrome : 247 ft
- Code IATA : BLL


EKBI - Billund

DERNIER METAR :
  • 221420Z 25019KT 9999 FEW030CB FEW037 13/05 Q1009

METARs EXPIRÉS :
  • 221350Z AUTO 25016KT 9999NDV FEW065/// 14/07 Q1009
  • 221250Z 25019G30KT 220V280 9999 FEW027CB FEW037TCU BKN095 12/05 Q1009
  • 221220Z 25018G30KT 9999 SHRA FEW025CB BKN040 12/07 Q1009
  • 221150Z 27017KT 9999 SHRA SCT025CB BKN040 11/07 Q1009
  • 221120Z 26023G36KT 9999 SCT025CB SCT040 14/06 Q1008

TAF TAF EKBI
Valide du 22 à 12h jusqu'au 23 à 12h UTC


221104Z 2212/2312 26018KT 9999 SCT020
TEMPO 2212/2218 26020G35KT 4000 SHRA SCT020CB
FM221800 26012KT 9999 SCT020
TEMPO 2218/2312 -SHRA SCT020CB
Pas de NOTAMs connus pour ce terrain.



MET'MAP, la Météo Aéronautique d'un coup d'oeil ! - Copyright ORBIFLY Décembre 2007 - Disclaimer

ORBIFLY MET'MAP TEAM :

Programmation & Développement : Alexandra Zaïnal
Conception & Développement : Baudouin d'Aumeries
Co-Programmation & Développement : Marc-Olivier Méhu
Soutien technique & logistique : Manuel Goepfert

Contact : metmap@orbifly.com




SOURCES & CREDITS :

   NOAA